sensor_id;sensor_type;location;lat;lon;timestamp;temperature;humidity
11047;DHT22;5576;50.008;10.596;2023-05-07T00:01:28;15.50;99.90
11047;DHT22;5576;50.008;10.596;2023-05-07T00:03:54;13.20;99.90
11047;DHT22;5576;50.008;10.596;2023-05-07T00:06:19;14.90;99.90
11047;DHT22;5576;50.008;10.596;2023-05-07T00:08:45;14.80;99.90
11047;DHT22;5576;50.008;10.596;2023-05-07T00:11:11;14.80;99.90
11047;DHT22;5576;50.008;10.596;2023-05-07T00:13:37;14.80;99.90
11047;DHT22;5576;50.008;10.596;2023-05-07T00:16:03;14.90;99.90
11047;DHT22;5576;50.008;10.596;2023-05-07T00:18:29;14.50;99.90
11047;DHT22;5576;50.008;10.596;2023-05-07T00:20:54;14.80;99.90
11047;DHT22;5576;50.008;10.596;2023-05-07T00:23:20;14.80;99.90
11047;DHT22;5576;50.008;10.596;2023-05-07T00:25:46;14.80;99.90
11047;DHT22;5576;50.008;10.596;2023-05-07T00:28:11;12.50;99.90
11047;DHT22;5576;50.008;10.596;2023-05-07T00:30:37;13.80;99.90
11047;DHT22;5576;50.008;10.596;2023-05-07T00:33:03;14.70;99.90
11047;DHT22;5576;50.008;10.596;2023-05-07T00:35:29;15.60;99.90
11047;DHT22;5576;50.008;10.596;2023-05-07T00:37:55;14.70;99.90
11047;DHT22;5576;50.008;10.596;2023-05-07T00:40:21;17.90;99.90
11047;DHT22;5576;50.008;10.596;2023-05-07T00:42:47;14.80;99.90
11047;DHT22;5576;50.008;10.596;2023-05-07T00:45:15;15.00;99.90
11047;DHT22;5576;50.008;10.596;2023-05-07T00:47:41;14.90;99.90
11047;DHT22;5576;50.008;10.596;2023-05-07T00:50:08;14.80;99.90
11047;DHT22;5576;50.008;10.596;2023-05-07T00:52:35;14.70;99.90
11047;DHT22;5576;50.008;10.596;2023-05-07T00:55:05;14.60;99.90
11047;DHT22;5576;50.008;10.596;2023-05-07T00:57:36;14.10;99.90
11047;DHT22;5576;50.008;10.596;2023-05-07T01:00:04;13.90;99.90
11047;DHT22;5576;50.008;10.596;2023-05-07T01:02:30;15.70;99.90
11047;DHT22;5576;50.008;10.596;2023-05-07T01:04:56;14.50;99.90
11047;DHT22;5576;50.008;10.596;2023-05-07T01:07:23;14.50;99.90
11047;DHT22;5576;50.008;10.596;2023-05-07T01:09:49;14.60;99.90
11047;DHT22;5576;50.008;10.596;2023-05-07T01:12:15;14.60;99.90
11047;DHT22;5576;50.008;10.596;2023-05-07T01:14:41;14.50;99.90
11047;DHT22;5576;50.008;10.596;2023-05-07T01:17:07;12.40;99.90
11047;DHT22;5576;50.008;10.596;2023-05-07T01:19:34;14.60;99.90
11047;DHT22;5576;50.008;10.596;2023-05-07T01:22:04;14.60;99.90
11047;DHT22;5576;50.008;10.596;2023-05-07T01:24:40;14.50;99.90
11047;DHT22;5576;50.008;10.596;2023-05-07T01:27:08;15.90;99.90
11047;DHT22;5576;50.008;10.596;2023-05-07T01:29:34;12.10;99.90
11047;DHT22;5576;50.008;10.596;2023-05-07T01:32:01;14.60;99.90
11047;DHT22;5576;50.008;10.596;2023-05-07T01:34:30;14.60;99.90
11047;DHT22;5576;50.008;10.596;2023-05-07T01:36:57;14.60;99.90
11047;DHT22;5576;50.008;10.596;2023-05-07T01:39:25;14.60;99.90
11047;DHT22;5576;50.008;10.596;2023-05-07T01:41:54;14.60;99.90
11047;DHT22;5576;50.008;10.596;2023-05-07T01:44:22;14.60;99.90
11047;DHT22;5576;50.008;10.596;2023-05-07T01:46:49;16.40;99.90
11047;DHT22;5576;50.008;10.596;2023-05-07T01:49:16;12.90;99.90
11047;DHT22;5576;50.008;10.596;2023-05-07T01:51:42;14.40;99.90
11047;DHT22;5576;50.008;10.596;2023-05-07T01:54:09;14.40;99.90
11047;DHT22;5576;50.008;10.596;2023-05-07T01:56:35;16.90;99.90
11047;DHT22;5576;50.008;10.596;2023-05-07T01:59:02;14.40;99.90
11047;DHT22;5576;50.008;10.596;2023-05-07T02:01:28;14.20;99.90
11047;DHT22;5576;50.008;10.596;2023-05-07T02:03:54;14.20;99.90
11047;DHT22;5576;50.008;10.596;2023-05-07T02:06:24;14.10;99.90
11047;DHT22;5576;50.008;10.596;2023-05-07T02:08:53;14.00;99.90
11047;DHT22;5576;50.008;10.596;2023-05-07T02:11:19;14.10;99.90
11047;DHT22;5576;50.008;10.596;2023-05-07T02:13:45;14.10;99.90
11047;DHT22;5576;50.008;10.596;2023-05-07T02:18:39;14.10;99.90
11047;DHT22;5576;50.008;10.596;2023-05-07T02:21:05;14.10;99.90
11047;DHT22;5576;50.008;10.596;2023-05-07T02:23:31;14.00;99.90
11047;DHT22;5576;50.008;10.596;2023-05-07T02:25:57;13.90;99.90
11047;DHT22;5576;50.008;10.596;2023-05-07T02:28:23;13.90;99.90
11047;DHT22;5576;50.008;10.596;2023-05-07T02:30:53;13.90;99.90
11047;DHT22;5576;50.008;10.596;2023-05-07T02:33:19;13.90;99.90
11047;DHT22;5576;50.008;10.596;2023-05-07T02:35:46;13.80;99.90
11047;DHT22;5576;50.008;10.596;2023-05-07T02:38:14;13.80;99.90
11047;DHT22;5576;50.008;10.596;2023-05-07T02:40:40;13.80;99.90
11047;DHT22;5576;50.008;10.596;2023-05-07T02:43:06;13.80;99.90
11047;DHT22;5576;50.008;10.596;2023-05-07T02:45:33;13.70;99.90
11047;DHT22;5576;50.008;10.596;2023-05-07T02:48:00;13.70;99.90
11047;DHT22;5576;50.008;10.596;2023-05-07T02:50:26;13.60;99.90
11047;DHT22;5576;50.008;10.596;2023-05-07T02:52:53;13.60;99.90
11047;DHT22;5576;50.008;10.596;2023-05-07T02:55:19;13.60;99.90
11047;DHT22;5576;50.008;10.596;2023-05-07T02:57:45;13.50;99.90
11047;DHT22;5576;50.008;10.596;2023-05-07T03:00:14;13.50;99.90
11047;DHT22;5576;50.008;10.596;2023-05-07T03:02:45;13.60;99.90
11047;DHT22;5576;50.008;10.596;2023-05-07T03:05:11;13.40;99.90
11047;DHT22;5576;50.008;10.596;2023-05-07T03:07:38;13.40;99.90
11047;DHT22;5576;50.008;10.596;2023-05-07T03:10:04;13.40;99.90
11047;DHT22;5576;50.008;10.596;2023-05-07T03:12:30;13.40;99.90
11047;DHT22;5576;50.008;10.596;2023-05-07T03:14:57;17.10;99.90
11047;DHT22;5576;50.008;10.596;2023-05-07T03:17:23;13.30;99.90
11047;DHT22;5576;50.008;10.596;2023-05-07T03:19:49;13.30;99.90
11047;DHT22;5576;50.008;10.596;2023-05-07T03:22:14;13.30;99.90
11047;DHT22;5576;50.008;10.596;2023-05-07T03:24:40;13.20;99.90
11047;DHT22;5576;50.008;10.596;2023-05-07T03:27:06;13.20;99.90
11047;DHT22;5576;50.008;10.596;2023-05-07T03:29:32;13.30;99.90
11047;DHT22;5576;50.008;10.596;2023-05-07T03:31:58;13.30;99.90
11047;DHT22;5576;50.008;10.596;2023-05-07T03:34:23;13.40;99.90
11047;DHT22;5576;50.008;10.596;2023-05-07T03:36:50;13.40;99.90
11047;DHT22;5576;50.008;10.596;2023-05-07T03:39:16;13.30;99.90
11047;DHT22;5576;50.008;10.596;2023-05-07T03:41:42;13.20;99.90
11047;DHT22;5576;50.008;10.596;2023-05-07T03:44:08;13.10;99.90
11047;DHT22;5576;50.008;10.596;2023-05-07T03:46:34;13.10;99.90
11047;DHT22;5576;50.008;10.596;2023-05-07T03:49:00;15.80;99.90
11047;DHT22;5576;50.008;10.596;2023-05-07T03:51:27;13.10;99.90
11047;DHT22;5576;50.008;10.596;2023-05-07T03:53:52;13.00;99.90
11047;DHT22;5576;50.008;10.596;2023-05-07T03:56:19;13.00;99.90
11047;DHT22;5576;50.008;10.596;2023-05-07T03:58:46;13.00;99.90
11047;DHT22;5576;50.008;10.596;2023-05-07T04:01:12;13.00;99.90
11047;DHT22;5576;50.008;10.596;2023-05-07T04:03:38;12.90;99.90
11047;DHT22;5576;50.008;10.596;2023-05-07T04:06:04;12.90;99.90
11047;DHT22;5576;50.008;10.596;2023-05-07T04:08:32;12.90;99.90
11047;DHT22;5576;50.008;10.596;2023-05-07T04:10:58;12.80;99.90
11047;DHT22;5576;50.008;10.596;2023-05-07T04:13:28;15.60;99.90
11047;DHT22;5576;50.008;10.596;2023-05-07T04:15:55;12.80;99.90
11047;DHT22;5576;50.008;10.596;2023-05-07T04:18:21;12.80;99.90
11047;DHT22;5576;50.008;10.596;2023-05-07T04:20:48;12.70;99.90
11047;DHT22;5576;50.008;10.596;2023-05-07T04:23:15;12.80;99.90
11047;DHT22;5576;50.008;10.596;2023-05-07T04:25:41;12.70;99.90
11047;DHT22;5576;50.008;10.596;2023-05-07T04:28:15;12.80;99.90
11047;DHT22;5576;50.008;10.596;2023-05-07T04:30:41;12.80;99.90
11047;DHT22;5576;50.008;10.596;2023-05-07T04:33:08;12.80;99.90
11047;DHT22;5576;50.008;10.596;2023-05-07T04:35:35;14.80;99.90
11047;DHT22;5576;50.008;10.596;2023-05-07T04:38:01;12.90;99.90
11047;DHT22;5576;50.008;10.596;2023-05-07T04:40:28;12.90;99.90
11047;DHT22;5576;50.008;10.596;2023-05-07T04:42:54;16.40;99.90
11047;DHT22;5576;50.008;10.596;2023-05-07T04:45:21;12.80;99.90
11047;DHT22;5576;50.008;10.596;2023-05-07T04:47:47;12.90;99.90
11047;DHT22;5576;50.008;10.596;2023-05-07T04:50:13;12.80;99.90
11047;DHT22;5576;50.008;10.596;2023-05-07T04:52:41;12.80;99.90
11047;DHT22;5576;50.008;10.596;2023-05-07T04:55:08;12.80;99.90
11047;DHT22;5576;50.008;10.596;2023-05-07T04:57:37;9.20;99.90
11047;DHT22;5576;50.008;10.596;2023-05-07T05:00:06;12.90;99.90
11047;DHT22;5576;50.008;10.596;2023-05-07T05:02:34;12.90;99.90
11047;DHT22;5576;50.008;10.596;2023-05-07T05:05:01;9.90;99.90
11047;DHT22;5576;50.008;10.596;2023-05-07T05:07:28;13.10;99.90
11047;DHT22;5576;50.008;10.596;2023-05-07T05:09:54;15.90;99.90
11047;DHT22;5576;50.008;10.596;2023-05-07T05:12:21;13.10;99.90
11047;DHT22;5576;50.008;10.596;2023-05-07T05:14:48;13.10;99.90
11047;DHT22;5576;50.008;10.596;2023-05-07T05:17:14;13.20;99.90
11047;DHT22;5576;50.008;10.596;2023-05-07T05:19:40;13.20;99.90
11047;DHT22;5576;50.008;10.596;2023-05-07T05:22:06;14.00;99.90
11047;DHT22;5576;50.008;10.596;2023-05-07T05:24:32;13.40;99.90
11047;DHT22;5576;50.008;10.596;2023-05-07T05:26:59;13.50;99.90
11047;DHT22;5576;50.008;10.596;2023-05-07T05:29:28;13.50;99.90
11047;DHT22;5576;50.008;10.596;2023-05-07T05:31:54;13.50;99.90
11047;DHT22;5576;50.008;10.596;2023-05-07T05:34:21;13.50;99.90
11047;DHT22;5576;50.008;10.596;2023-05-07T05:36:48;15.70;99.90
11047;DHT22;5576;50.008;10.596;2023-05-07T05:39:14;13.50;99.90
11047;DHT22;5576;50.008;10.596;2023-05-07T05:41:40;13.50;99.90
11047;DHT22;5576;50.008;10.596;2023-05-07T05:44:07;13.70;99.90
11047;DHT22;5576;50.008;10.596;2023-05-07T05:46:33;13.80;99.90
11047;DHT22;5576;50.008;10.596;2023-05-07T05:48:59;13.80;99.90
11047;DHT22;5576;50.008;10.596;2023-05-07T05:51:25;16.70;99.90
11047;DHT22;5576;50.008;10.596;2023-05-07T05:53:52;13.80;99.90
11047;DHT22;5576;50.008;10.596;2023-05-07T05:56:18;13.80;99.90
11047;DHT22;5576;50.008;10.596;2023-05-07T05:58:43;13.80;99.90
11047;DHT22;5576;50.008;10.596;2023-05-07T06:01:09;13.90;99.90
11047;DHT22;5576;50.008;10.596;2023-05-07T06:03:37;14.10;99.90
11047;DHT22;5576;50.008;10.596;2023-05-07T06:06:10;14.00;99.90
11047;DHT22;5576;50.008;10.596;2023-05-07T06:08:36;14.20;99.90
11047;DHT22;5576;50.008;10.596;2023-05-07T06:11:03;14.20;99.90
11047;DHT22;5576;50.008;10.596;2023-05-07T06:13:31;14.20;99.90
11047;DHT22;5576;50.008;10.596;2023-05-07T06:15:57;14.20;99.90
11047;DHT22;5576;50.008;10.596;2023-05-07T06:18:22;14.20;99.90
11047;DHT22;5576;50.008;10.596;2023-05-07T06:20:48;14.10;99.90
11047;DHT22;5576;50.008;10.596;2023-05-07T06:23:22;15.50;99.90
11047;DHT22;5576;50.008;10.596;2023-05-07T06:25:49;15.00;99.90
11047;DHT22;5576;50.008;10.596;2023-05-07T06:28:16;15.00;99.90
11047;DHT22;5576;50.008;10.596;2023-05-07T06:30:43;14.30;99.90
11047;DHT22;5576;50.008;10.596;2023-05-07T06:33:09;14.30;99.90
11047;DHT22;5576;50.008;10.596;2023-05-07T06:35:34;14.40;99.90
11047;DHT22;5576;50.008;10.596;2023-05-07T06:38:00;14.40;99.90
11047;DHT22;5576;50.008;10.596;2023-05-07T06:40:28;14.40;99.90
11047;DHT22;5576;50.008;10.596;2023-05-07T06:42:54;14.40;99.90
11047;DHT22;5576;50.008;10.596;2023-05-07T06:45:29;14.60;99.90
11047;DHT22;5576;50.008;10.596;2023-05-07T06:47:56;14.70;99.90
11047;DHT22;5576;50.008;10.596;2023-05-07T06:50:23;14.70;99.90
11047;DHT22;5576;50.008;10.596;2023-05-07T06:52:49;14.80;99.90
11047;DHT22;5576;50.008;10.596;2023-05-07T06:55:15;12.30;99.90
11047;DHT22;5576;50.008;10.596;2023-05-07T06:57:41;13.70;99.90
11047;DHT22;5576;50.008;10.596;2023-05-07T07:00:07;11.70;99.90
11047;DHT22;5576;50.008;10.596;2023-05-07T07:02:41;15.10;99.90
11047;DHT22;5576;50.008;10.596;2023-05-07T07:05:09;15.20;99.90
11047;DHT22;5576;50.008;10.596;2023-05-07T07:07:35;15.20;99.90
11047;DHT22;5576;50.008;10.596;2023-05-07T07:10:01;15.00;99.90
11047;DHT22;5576;50.008;10.596;2023-05-07T07:12:28;15.30;99.90
11047;DHT22;5576;50.008;10.596;2023-05-07T07:14:55;15.40;99.90
11047;DHT22;5576;50.008;10.596;2023-05-07T07:17:22;15.40;99.90
11047;DHT22;5576;50.008;10.596;2023-05-07T07:19:48;19.30;99.90
11047;DHT22;5576;50.008;10.596;2023-05-07T07:22:13;15.50;99.90
11047;DHT22;5576;50.008;10.596;2023-05-07T07:24:39;15.60;99.90
11047;DHT22;5576;50.008;10.596;2023-05-07T07:27:07;15.60;99.90
11047;DHT22;5576;50.008;10.596;2023-05-07T07:29:34;15.80;99.90
11047;DHT22;5576;50.008;10.596;2023-05-07T07:32:00;16.30;99.90
11047;DHT22;5576;50.008;10.596;2023-05-07T07:34:26;16.00;99.90
11047;DHT22;5576;50.008;10.596;2023-05-07T07:36:52;16.10;99.90
11047;DHT22;5576;50.008;10.596;2023-05-07T07:39:18;16.20;99.90
11047;DHT22;5576;50.008;10.596;2023-05-07T07:41:46;16.30;99.90
11047;DHT22;5576;50.008;10.596;2023-05-07T07:44:12;16.40;99.90
11047;DHT22;5576;50.008;10.596;2023-05-07T07:46:39;16.40;99.90
11047;DHT22;5576;50.008;10.596;2023-05-07T07:49:06;16.50;99.90
11047;DHT22;5576;50.008;10.596;2023-05-07T07:51:32;16.50;99.90
11047;DHT22;5576;50.008;10.596;2023-05-07T07:53:59;16.70;99.90
11047;DHT22;5576;50.008;10.596;2023-05-07T07:56:25;16.70;99.90
11047;DHT22;5576;50.008;10.596;2023-05-07T07:58:51;16.60;99.90
11047;DHT22;5576;50.008;10.596;2023-05-07T08:01:18;18.80;99.90
11047;DHT22;5576;50.008;10.596;2023-05-07T08:06:12;16.70;99.90
11047;DHT22;5576;50.008;10.596;2023-05-07T08:08:39;16.80;99.90
11047;DHT22;5576;50.008;10.596;2023-05-07T08:11:04;13.90;99.90
11047;DHT22;5576;50.008;10.596;2023-05-07T08:13:33;17.00;99.90
11047;DHT22;5576;50.008;10.596;2023-05-07T08:15:59;17.00;99.90
11047;DHT22;5576;50.008;10.596;2023-05-07T08:18:25;17.00;99.90
11047;DHT22;5576;50.008;10.596;2023-05-07T08:20:54;17.10;99.90
11047;DHT22;5576;50.008;10.596;2023-05-07T08:23:22;17.20;99.90
11047;DHT22;5576;50.008;10.596;2023-05-07T08:25:49;17.20;99.90
11047;DHT22;5576;50.008;10.596;2023-05-07T08:28:16;17.30;99.90
11047;DHT22;5576;50.008;10.596;2023-05-07T08:30:42;20.80;99.90
11047;DHT22;5576;50.008;10.596;2023-05-07T08:33:09;17.40;99.90
11047;DHT22;5576;50.008;10.596;2023-05-07T08:35:35;17.50;99.90
11047;DHT22;5576;50.008;10.596;2023-05-07T08:38:01;17.50;99.90
11047;DHT22;5576;50.008;10.596;2023-05-07T08:40:26;17.50;99.90
11047;DHT22;5576;50.008;10.596;2023-05-07T08:42:55;17.60;99.90
11047;DHT22;5576;50.008;10.596;2023-05-07T08:45:23;20.10;99.90
11047;DHT22;5576;50.008;10.596;2023-05-07T08:47:52;17.80;99.90
11047;DHT22;5576;50.008;10.596;2023-05-07T08:50:22;17.70;99.90
11047;DHT22;5576;50.008;10.596;2023-05-07T08:52:48;17.80;99.90
11047;DHT22;5576;50.008;10.596;2023-05-07T08:55:16;17.80;99.90
11047;DHT22;5576;50.008;10.596;2023-05-07T08:57:43;17.80;99.90
11047;DHT22;5576;50.008;10.596;2023-05-07T09:00:10;17.90;99.90
11047;DHT22;5576;50.008;10.596;2023-05-07T09:02:37;14.50;99.90
11047;DHT22;5576;50.008;10.596;2023-05-07T09:05:05;17.90;99.90
11047;DHT22;5576;50.008;10.596;2023-05-07T09:07:31;21.10;99.90
11047;DHT22;5576;50.008;10.596;2023-05-07T09:09:58;18.20;99.90
11047;DHT22;5576;50.008;10.596;2023-05-07T09:12:25;18.00;99.90
11047;DHT22;5576;50.008;10.596;2023-05-07T09:17:17;17.90;99.90
11047;DHT22;5576;50.008;10.596;2023-05-07T09:19:45;20.60;99.90
11047;DHT22;5576;50.008;10.596;2023-05-07T09:22:12;17.90;99.90
11047;DHT22;5576;50.008;10.596;2023-05-07T09:24:49;18.00;99.90
11047;DHT22;5576;50.008;10.596;2023-05-07T09:27:17;18.00;99.90
11047;DHT22;5576;50.008;10.596;2023-05-07T09:29:44;18.00;99.90
11047;DHT22;5576;50.008;10.596;2023-05-07T09:32:10;18.10;99.90
11047;DHT22;5576;50.008;10.596;2023-05-07T09:34:36;18.20;99.90
11047;DHT22;5576;50.008;10.596;2023-05-07T09:37:03;18.20;99.90
11047;DHT22;5576;50.008;10.596;2023-05-07T09:39:46;18.20;99.90
11047;DHT22;5576;50.008;10.596;2023-05-07T09:42:14;18.20;99.90
11047;DHT22;5576;50.008;10.596;2023-05-07T09:44:41;17.40;99.90
11047;DHT22;5576;50.008;10.596;2023-05-07T09:47:17;18.30;99.90
11047;DHT22;5576;50.008;10.596;2023-05-07T09:49:47;18.40;99.90
11047;DHT22;5576;50.008;10.596;2023-05-07T09:52:14;18.50;99.90
11047;DHT22;5576;50.008;10.596;2023-05-07T09:54:47;18.70;99.90
11047;DHT22;5576;50.008;10.596;2023-05-07T09:57:17;18.80;99.90
11047;DHT22;5576;50.008;10.596;2023-05-07T09:59:49;18.80;99.90
11047;DHT22;5576;50.008;10.596;2023-05-07T10:02:19;18.90;99.90
11047;DHT22;5576;50.008;10.596;2023-05-07T10:04:48;19.00;99.90
11047;DHT22;5576;50.008;10.596;2023-05-07T10:07:18;19.10;99.90
11047;DHT22;5576;50.008;10.596;2023-05-07T10:09:44;19.20;99.90
11047;DHT22;5576;50.008;10.596;2023-05-07T10:12:21;19.20;99.90
11047;DHT22;5576;50.008;10.596;2023-05-07T10:14:47;19.30;99.90
11047;DHT22;5576;50.008;10.596;2023-05-07T10:17:16;19.40;99.90
11047;DHT22;5576;50.008;10.596;2023-05-07T10:19:44;23.10;99.90
11047;DHT22;5576;50.008;10.596;2023-05-07T10:22:11;19.50;99.90
11047;DHT22;5576;50.008;10.596;2023-05-07T10:24:44;21.60;99.90
11047;DHT22;5576;50.008;10.596;2023-05-07T10:27:16;19.60;99.90
11047;DHT22;5576;50.008;10.596;2023-05-07T10:34:55;19.80;99.90
11047;DHT22;5576;50.008;10.596;2023-05-07T10:37:22;17.30;99.90
11047;DHT22;5576;50.008;10.596;2023-05-07T10:39:49;19.80;99.90
11047;DHT22;5576;50.008;10.596;2023-05-07T10:42:15;20.10;99.90
11047;DHT22;5576;50.008;10.596;2023-05-07T10:44:47;20.50;99.90
11047;DHT22;5576;50.008;10.596;2023-05-07T10:47:20;19.30;99.90
11047;DHT22;5576;50.008;10.596;2023-05-07T10:52:23;21.00;99.90
11047;DHT22;5576;50.008;10.596;2023-05-07T10:55:19;20.90;99.90
11047;DHT22;5576;50.008;10.596;2023-05-07T10:58:23;20.90;99.90
11047;DHT22;5576;50.008;10.596;2023-05-07T11:00:59;20.70;99.90
11047;DHT22;5576;50.008;10.596;2023-05-07T11:03:30;19.90;99.90
11047;DHT22;5576;50.008;10.596;2023-05-07T11:06:16;21.10;99.90
11047;DHT22;5576;50.008;10.596;2023-05-07T11:08:55;21.20;99.90
11047;DHT22;5576;50.008;10.596;2023-05-07T11:11:46;21.50;99.90
11047;DHT22;5576;50.008;10.596;2023-05-07T11:14:46;21.90;99.90
11047;DHT22;5576;50.008;10.596;2023-05-07T11:17:18;21.90;99.90
11047;DHT22;5576;50.008;10.596;2023-05-07T11:19:53;22.80;99.90
11047;DHT22;5576;50.008;10.596;2023-05-07T11:25:08;18.80;99.90
11047;DHT22;5576;50.008;10.596;2023-05-07T11:27:35;21.90;99.90
11047;DHT22;5576;50.008;10.596;2023-05-07T11:30:02;21.70;99.90
11047;DHT22;5576;50.008;10.596;2023-05-07T11:32:30;23.00;99.90
11047;DHT22;5576;50.008;10.596;2023-05-07T11:34:58;21.70;99.90
11047;DHT22;5576;50.008;10.596;2023-05-07T11:37:26;21.80;99.90
11047;DHT22;5576;50.008;10.596;2023-05-07T11:40:07;21.70;99.90
11047;DHT22;5576;50.008;10.596;2023-05-07T11:42:35;21.70;99.90
11047;DHT22;5576;50.008;10.596;2023-05-07T11:45:03;22.60;99.90
11047;DHT22;5576;50.008;10.596;2023-05-07T11:47:31;21.70;99.90
11047;DHT22;5576;50.008;10.596;2023-05-07T11:49:57;21.70;99.90
11047;DHT22;5576;50.008;10.596;2023-05-07T11:52:27;21.80;99.90
11047;DHT22;5576;50.008;10.596;2023-05-07T11:54:57;21.90;99.90
11047;DHT22;5576;50.008;10.596;2023-05-07T11:57:24;21.90;99.90
11047;DHT22;5576;50.008;10.596;2023-05-07T11:59:58;22.00;99.90
11047;DHT22;5576;50.008;10.596;2023-05-07T12:02:25;22.10;99.90
11047;DHT22;5576;50.008;10.596;2023-05-07T12:04:52;22.00;99.90
11047;DHT22;5576;50.008;10.596;2023-05-07T12:07:18;22.00;99.90
11047;DHT22;5576;50.008;10.596;2023-05-07T12:09:44;22.00;99.90
11047;DHT22;5576;50.008;10.596;2023-05-07T12:12:11;22.10;99.90
11047;DHT22;5576;50.008;10.596;2023-05-07T12:14:39;22.10;99.90
11047;DHT22;5576;50.008;10.596;2023-05-07T12:17:06;22.10;99.90
11047;DHT22;5576;50.008;10.596;2023-05-07T12:19:34;21.20;99.90
11047;DHT22;5576;50.008;10.596;2023-05-07T12:22:01;21.10;99.90
11047;DHT22;5576;50.008;10.596;2023-05-07T12:24:27;22.50;99.90
11047;DHT22;5576;50.008;10.596;2023-05-07T12:29:22;25.90;99.90
11047;DHT22;5576;50.008;10.596;2023-05-07T12:31:49;23.00;99.90
11047;DHT22;5576;50.008;10.596;2023-05-07T12:34:15;26.70;99.90
11047;DHT22;5576;50.008;10.596;2023-05-07T12:36:41;23.30;99.90
11047;DHT22;5576;50.008;10.596;2023-05-07T12:39:08;23.20;99.90
11047;DHT22;5576;50.008;10.596;2023-05-07T12:41:54;23.10;99.90
11047;DHT22;5576;50.008;10.596;2023-05-07T12:44:25;22.80;99.90
11047;DHT22;5576;50.008;10.596;2023-05-07T12:46:51;22.80;99.90
11047;DHT22;5576;50.008;10.596;2023-05-07T12:49:17;22.80;99.90
11047;DHT22;5576;50.008;10.596;2023-05-07T12:51:44;23.20;99.90
11047;DHT22;5576;50.008;10.596;2023-05-07T12:54:11;23.80;99.90
11047;DHT22;5576;50.008;10.596;2023-05-07T12:56:37;23.80;99.90
11047;DHT22;5576;50.008;10.596;2023-05-07T13:01:30;23.80;99.90
11047;DHT22;5576;50.008;10.596;2023-05-07T13:04:00;23.90;99.90
11047;DHT22;5576;50.008;10.596;2023-05-07T13:06:26;23.90;99.90
11047;DHT22;5576;50.008;10.596;2023-05-07T13:08:53;22.70;99.90
11047;DHT22;5576;50.008;10.596;2023-05-07T13:11:18;23.60;99.90
11047;DHT22;5576;50.008;10.596;2023-05-07T13:13:44;23.80;99.90
11047;DHT22;5576;50.008;10.596;2023-05-07T13:16:10;26.30;99.90
11047;DHT22;5576;50.008;10.596;2023-05-07T13:18:38;23.90;99.90
11047;DHT22;5576;50.008;10.596;2023-05-07T13:21:04;23.80;99.90
11047;DHT22;5576;50.008;10.596;2023-05-07T13:23:30;23.80;99.90
11047;DHT22;5576;50.008;10.596;2023-05-07T13:25:55;23.80;99.90
11047;DHT22;5576;50.008;10.596;2023-05-07T13:28:22;24.00;99.90
11047;DHT22;5576;50.008;10.596;2023-05-07T13:30:48;21.10;99.90
11047;DHT22;5576;50.008;10.596;2023-05-07T13:33:14;21.00;99.90
11047;DHT22;5576;50.008;10.596;2023-05-07T13:35:41;24.60;99.90
11047;DHT22;5576;50.008;10.596;2023-05-07T13:38:07;24.60;99.90
11047;DHT22;5576;50.008;10.596;2023-05-07T13:40:33;23.40;99.90
11047;DHT22;5576;50.008;10.596;2023-05-07T13:42:59;24.40;99.90
11047;DHT22;5576;50.008;10.596;2023-05-07T13:45:27;24.30;99.90
11047;DHT22;5576;50.008;10.596;2023-05-07T13:47:55;21.60;99.90
11047;DHT22;5576;50.008;10.596;2023-05-07T13:50:21;24.40;99.90
11047;DHT22;5576;50.008;10.596;2023-05-07T13:52:47;24.40;99.90
11047;DHT22;5576;50.008;10.596;2023-05-07T13:55:17;24.30;99.90
11047;DHT22;5576;50.008;10.596;2023-05-07T14:00:10;23.00;99.90
11047;DHT22;5576;50.008;10.596;2023-05-07T14:02:44;27.70;99.90
11047;DHT22;5576;50.008;10.596;2023-05-07T14:05:10;24.30;99.90
11047;DHT22;5576;50.008;10.596;2023-05-07T14:10:02;23.40;99.90
11047;DHT22;5576;50.008;10.596;2023-05-07T14:12:28;24.00;99.90
11047;DHT22;5576;50.008;10.596;2023-05-07T14:14:54;23.10;99.90
11047;DHT22;5576;50.008;10.596;2023-05-07T14:17:21;21.40;99.90
11047;DHT22;5576;50.008;10.596;2023-05-07T14:19:48;24.60;99.90
11047;DHT22;5576;50.008;10.596;2023-05-07T14:22:14;24.10;99.90
11047;DHT22;5576;50.008;10.596;2023-05-07T14:24:40;23.60;99.90
11047;DHT22;5576;50.008;10.596;2023-05-07T14:27:06;23.40;99.90
11047;DHT22;5576;50.008;10.596;2023-05-07T14:29:32;24.10;99.90
11047;DHT22;5576;50.008;10.596;2023-05-07T14:31:58;24.80;99.90
11047;DHT22;5576;50.008;10.596;2023-05-07T14:34:24;23.60;99.90
11047;DHT22;5576;50.008;10.596;2023-05-07T14:41:43;23.30;99.90
11047;DHT22;5576;50.008;10.596;2023-05-07T14:44:09;24.30;99.90
11047;DHT22;5576;50.008;10.596;2023-05-07T14:46:34;24.20;99.90
11047;DHT22;5576;50.008;10.596;2023-05-07T14:49:02;24.10;99.90
11047;DHT22;5576;50.008;10.596;2023-05-07T14:51:27;24.20;99.90
11047;DHT22;5576;50.008;10.596;2023-05-07T14:53:54;24.30;99.90
11047;DHT22;5576;50.008;10.596;2023-05-07T14:58:47;23.50;99.90
11047;DHT22;5576;50.008;10.596;2023-05-07T15:01:13;24.30;99.90
11047;DHT22;5576;50.008;10.596;2023-05-07T15:03:40;24.30;99.90
11047;DHT22;5576;50.008;10.596;2023-05-07T15:08:31;24.10;99.90
11047;DHT22;5576;50.008;10.596;2023-05-07T15:10:57;25.50;99.90
11047;DHT22;5576;50.008;10.596;2023-05-07T15:15:56;24.00;99.90
11047;DHT22;5576;50.008;10.596;2023-05-07T15:18:21;26.40;99.90
11047;DHT22;5576;50.008;10.596;2023-05-07T15:20:47;24.30;99.90
11047;DHT22;5576;50.008;10.596;2023-05-07T15:23:13;24.20;99.90
11047;DHT22;5576;50.008;10.596;2023-05-07T15:25:42;24.20;99.90
11047;DHT22;5576;50.008;10.596;2023-05-07T15:28:08;24.00;99.90
11047;DHT22;5576;50.008;10.596;2023-05-07T15:30:34;23.60;99.90
11047;DHT22;5576;50.008;10.596;2023-05-07T15:33:01;23.60;99.90
11047;DHT22;5576;50.008;10.596;2023-05-07T15:35:27;23.50;99.90
11047;DHT22;5576;50.008;10.596;2023-05-07T15:37:53;23.40;99.90
11047;DHT22;5576;50.008;10.596;2023-05-07T15:40:19;23.10;99.90
11047;DHT22;5576;50.008;10.596;2023-05-07T15:42:46;22.90;99.90
11047;DHT22;5576;50.008;10.596;2023-05-07T15:45:11;23.00;99.90
11047;DHT22;5576;50.008;10.596;2023-05-07T15:47:37;23.00;99.90
11047;DHT22;5576;50.008;10.596;2023-05-07T15:50:04;22.80;99.90
11047;DHT22;5576;50.008;10.596;2023-05-07T15:52:30;22.70;99.90
11047;DHT22;5576;50.008;10.596;2023-05-07T15:54:56;22.80;99.90
11047;DHT22;5576;50.008;10.596;2023-05-07T15:57:23;22.90;99.90
11047;DHT22;5576;50.008;10.596;2023-05-07T15:59:49;22.90;99.90
11047;DHT22;5576;50.008;10.596;2023-05-07T16:02:15;21.60;99.90
11047;DHT22;5576;50.008;10.596;2023-05-07T16:04:41;21.00;99.90
11047;DHT22;5576;50.008;10.596;2023-05-07T16:07:07;22.30;99.90
11047;DHT22;5576;50.008;10.596;2023-05-07T16:09:33;22.10;99.90
11047;DHT22;5576;50.008;10.596;2023-05-07T16:11:59;22.40;99.90